sensor_id;sensor_type;location;lat;lon;timestamp;pressure;altitude;pressure_sealevel;temperature;humidity
70027;BME280;57506;50.092;15.804;2023-02-15T00:01:07;100840.41;;;2.25;100.00
70027;BME280;57506;50.092;15.804;2023-02-15T00:03:32;100842.13;;;2.26;100.00
70027;BME280;57506;50.092;15.804;2023-02-15T00:05:58;100832.53;;;2.24;100.00
70027;BME280;57506;50.092;15.804;2023-02-15T00:08:23;100835.38;;;2.21;100.00
70027;BME280;57506;50.092;15.804;2023-02-15T00:10:49;100845.72;;;2.25;100.00
70027;BME280;57506;50.092;15.804;2023-02-15T00:13:14;100843.22;;;2.36;100.00
70027;BME280;57506;50.092;15.804;2023-02-15T00:15:40;100848.53;;;2.36;100.00
70027;BME280;57506;50.092;15.804;2023-02-15T00:18:05;100849.69;;;2.32;100.00
70027;BME280;57506;50.092;15.804;2023-02-15T00:20:31;100837.00;;;2.23;100.00
70027;BME280;57506;50.092;15.804;2023-02-15T00:22:56;100819.91;;;2.13;100.00
70027;BME280;57506;50.092;15.804;2023-02-15T00:25:22;100832.72;;;2.21;100.00
70027;BME280;57506;50.092;15.804;2023-02-15T00:27:47;100828.44;;;2.18;100.00
70027;BME280;57506;50.092;15.804;2023-02-15T00:30:13;100846.25;;;2.30;100.00
70027;BME280;57506;50.092;15.804;2023-02-15T00:32:38;100842.34;;;2.36;100.00
70027;BME280;57506;50.092;15.804;2023-02-15T00:35:04;100836.56;;;2.29;100.00
70027;BME280;57506;50.092;15.804;2023-02-15T00:37:30;100818.66;;;2.19;100.00
70027;BME280;57506;50.092;15.804;2023-02-15T00:39:55;100829.78;;;2.25;100.00
70027;BME280;57506;50.092;15.804;2023-02-15T00:42:21;100826.78;;;2.30;100.00
70027;BME280;57506;50.092;15.804;2023-02-15T00:44:46;100814.22;;;2.19;100.00
70027;BME280;57506;50.092;15.804;2023-02-15T00:47:12;100825.78;;;2.18;100.00
70027;BME280;57506;50.092;15.804;2023-02-15T00:49:37;100820.25;;;2.08;100.00
70027;BME280;57506;50.092;15.804;2023-02-15T00:52:03;100826.50;;;2.07;100.00
70027;BME280;57506;50.092;15.804;2023-02-15T00:54:28;100817.31;;;1.99;100.00
70027;BME280;57506;50.092;15.804;2023-02-15T00:56:54;100821.47;;;2.03;100.00
70027;BME280;57506;50.092;15.804;2023-02-15T00:59:19;100809.66;;;1.94;100.00
70027;BME280;57506;50.092;15.804;2023-02-15T01:01:45;100817.31;;;1.99;100.00
70027;BME280;57506;50.092;15.804;2023-02-15T01:04:10;100813.25;;;1.93;100.00
70027;BME280;57506;50.092;15.804;2023-02-15T01:06:35;100816.53;;;1.97;100.00
70027;BME280;57506;50.092;15.804;2023-02-15T01:09:01;100797.03;;;1.84;100.00
70027;BME280;57506;50.092;15.804;2023-02-15T01:11:27;100820.16;;;1.96;100.00
70027;BME280;57506;50.092;15.804;2023-02-15T01:13:55;100815.91;;;1.93;100.00
70027;BME280;57506;50.092;15.804;2023-02-15T01:16:23;100805.19;;;1.95;100.00
70027;BME280;57506;50.092;15.804;2023-02-15T01:18:49;100808.66;;;1.95;100.00
70027;BME280;57506;50.092;15.804;2023-02-15T01:21:17;100803.06;;;2.00;100.00
70027;BME280;57506;50.092;15.804;2023-02-15T01:23:43;100799.31;;;1.90;100.00
70027;BME280;57506;50.092;15.804;2023-02-15T01:26:09;100808.78;;;1.94;100.00
70027;BME280;57506;50.092;15.804;2023-02-15T01:28:35;100785.16;;;1.89;100.00
70027;BME280;57506;50.092;15.804;2023-02-15T01:31:06;100797.53;;;2.03;100.00
70027;BME280;57506;50.092;15.804;2023-02-15T01:33:31;100791.75;;;1.96;100.00
70027;BME280;57506;50.092;15.804;2023-02-15T01:35:57;100791.53;;;1.87;100.00
70027;BME280;57506;50.092;15.804;2023-02-15T01:38:23;100790.91;;;1.96;100.00
70027;BME280;57506;50.092;15.804;2023-02-15T01:40:52;100783.69;;;1.98;100.00
70027;BME280;57506;50.092;15.804;2023-02-15T01:43:18;100771.91;;;2.02;100.00
70027;BME280;57506;50.092;15.804;2023-02-15T01:45:47;100775.81;;;1.96;100.00
70027;BME280;57506;50.092;15.804;2023-02-15T01:48:22;100779.75;;;1.91;100.00
70027;BME280;57506;50.092;15.804;2023-02-15T01:51:01;100766.19;;;1.81;100.00
70027;BME280;57506;50.092;15.804;2023-02-15T01:53:34;100766.09;;;1.83;100.00
70027;BME280;57506;50.092;15.804;2023-02-15T01:56:08;100776.63;;;1.84;100.00
70027;BME280;57506;50.092;15.804;2023-02-15T01:58:35;100753.97;;;1.79;100.00
70027;BME280;57506;50.092;15.804;2023-02-15T02:01:02;100766.09;;;1.83;100.00
70027;BME280;57506;50.092;15.804;2023-02-15T02:04:02;100757.34;;;1.81;100.00
70027;BME280;57506;50.092;15.804;2023-02-15T02:06:32;100766.69;;;1.73;100.00
70027;BME280;57506;50.092;15.804;2023-02-15T02:08:58;100768.59;;;1.71;100.00
70027;BME280;57506;50.092;15.804;2023-02-15T02:11:24;100764.22;;;1.70;100.00
70027;BME280;57506;50.092;15.804;2023-02-15T02:13:51;100765.28;;;1.68;100.00
70027;BME280;57506;50.092;15.804;2023-02-15T02:24:52;100754.22;;;1.61;100.00
70027;BME280;57506;50.092;15.804;2023-02-15T02:27:48;100753.75;;;1.55;100.00
70027;BME280;57506;50.092;15.804;2023-02-15T02:49:38;100745.38;;;1.47;100.00
70027;BME280;57506;50.092;15.804;2023-02-15T02:52:30;100753.00;;;1.38;100.00
70027;BME280;57506;50.092;15.804;2023-02-15T02:54:51;100755.19;;;1.32;100.00
70027;BME280;57506;50.092;15.804;2023-02-15T02:57:18;100731.22;;;1.19;100.00
70027;BME280;57506;50.092;15.804;2023-02-15T02:59:47;100744.47;;;1.33;100.00
70027;BME280;57506;50.092;15.804;2023-02-15T03:02:18;100755.19;;;1.46;100.00
70027;BME280;57506;50.092;15.804;2023-02-15T03:04:48;100747.97;;;1.34;100.00
70027;BME280;57506;50.092;15.804;2023-02-15T03:07:24;100750.63;;;1.34;100.00
70027;BME280;57506;50.092;15.804;2023-02-15T03:09:54;100734.25;;;1.27;100.00
70027;BME280;57506;50.092;15.804;2023-02-15T03:12:37;100737.84;;;1.26;100.00
70027;BME280;57506;50.092;15.804;2023-02-15T03:15:20;100732.81;;;1.22;100.00
70027;BME280;57506;50.092;15.804;2023-02-15T03:17:51;100735.19;;;1.26;100.00
70027;BME280;57506;50.092;15.804;2023-02-15T03:22:59;100736.25;;;1.24;100.00
70027;BME280;57506;50.092;15.804;2023-02-15T03:25:34;100738.91;;;1.24;100.00
70027;BME280;57506;50.092;15.804;2023-02-15T03:28:07;100738.13;;;1.22;100.00
70027;BME280;57506;50.092;15.804;2023-02-15T03:30:35;100729.31;;;1.21;100.00
70027;BME280;57506;50.092;15.804;2023-02-15T03:33:02;100723.75;;;1.12;100.00
70027;BME280;57506;50.092;15.804;2023-02-15T03:35:39;100737.97;;;1.11;100.00
70027;BME280;57506;50.092;15.804;2023-02-15T03:38:07;100737.97;;;1.11;100.00
70027;BME280;57506;50.092;15.804;2023-02-15T03:40:39;100740.13;;;1.04;100.00
70027;BME280;57506;50.092;15.804;2023-02-15T03:48:49;100731.41;;;1.02;100.00
70027;BME280;57506;50.092;15.804;2023-02-15T03:51:19;100739.88;;;1.09;100.00
70027;BME280;57506;50.092;15.804;2023-02-15T03:54:02;100739.09;;;1.21;100.00
70027;BME280;57506;50.092;15.804;2023-02-15T03:56:29;100737.66;;;1.15;100.00
70027;BME280;57506;50.092;15.804;2023-02-15T03:58:54;100720.53;;;1.07;100.00
70027;BME280;57506;50.092;15.804;2023-02-15T04:02:10;100719.25;;;1.40;100.00
70027;BME280;57506;50.092;15.804;2023-02-15T04:04:46;100711.78;;;1.19;100.00
70027;BME280;57506;50.092;15.804;2023-02-15T04:07:12;100701.44;;;1.14;100.00
70027;BME280;57506;50.092;15.804;2023-02-15T04:09:37;100711.50;;;1.23;100.00
70027;BME280;57506;50.092;15.804;2023-02-15T04:12:22;100704.56;;;1.21;100.00
70027;BME280;57506;50.092;15.804;2023-02-15T04:14:48;100698.31;;;1.22;100.00
70027;BME280;57506;50.092;15.804;2023-02-15T04:17:32;100708.16;;;1.20;100.00
70027;BME280;57506;50.092;15.804;2023-02-15T04:19:57;100706.66;;;1.16;100.00
70027;BME280;57506;50.092;15.804;2023-02-15T04:22:41;100702.41;;;1.13;100.00
70027;BME280;57506;50.092;15.804;2023-02-15T04:25:25;100706.03;;;1.12;100.00
70027;BME280;57506;50.092;15.804;2023-02-15T04:27:52;100701.25;;;1.17;100.00
70027;BME280;57506;50.092;15.804;2023-02-15T04:30:21;100711.22;;;1.14;100.00
70027;BME280;57506;50.092;15.804;2023-02-15T04:32:47;100700.03;;;1.09;100.00
70027;BME280;57506;50.092;15.804;2023-02-15T04:35:13;100707.81;;;1.12;100.00
70027;BME280;57506;50.092;15.804;2023-02-15T04:37:39;100712.28;;;1.11;100.00
70027;BME280;57506;50.092;15.804;2023-02-15T04:40:06;100704.59;;;1.07;100.00
70027;BME280;57506;50.092;15.804;2023-02-15T04:42:33;100700.41;;;1.02;100.00
70027;BME280;57506;50.092;15.804;2023-02-15T04:44:59;100695.00;;;1.04;100.00
70027;BME280;57506;50.092;15.804;2023-02-15T04:47:25;100689.03;;;1.00;100.00
70027;BME280;57506;50.092;15.804;2023-02-15T04:49:50;100681.28;;;0.97;100.00
70027;BME280;57506;50.092;15.804;2023-02-15T04:52:16;100694.34;;;1.00;100.00
70027;BME280;57506;50.092;15.804;2023-02-15T04:54:43;100704.97;;;1.00;100.00
70027;BME280;57506;50.092;15.804;2023-02-15T04:57:09;100691.50;;;1.03;100.00
70027;BME280;57506;50.092;15.804;2023-02-15T04:59:34;100695.59;;;0.95;100.00
70027;BME280;57506;50.092;15.804;2023-02-15T05:02:00;100692.63;;;0.99;100.00
70027;BME280;57506;50.092;15.804;2023-02-15T05:04:26;100702.22;;;1.02;100.00
70027;BME280;57506;50.092;15.804;2023-02-15T05:06:51;100703.06;;;1.02;100.00
70027;BME280;57506;50.092;15.804;2023-02-15T05:09:17;100707.34;;;1.05;100.00
70027;BME280;57506;50.092;15.804;2023-02-15T05:11:42;100683.56;;;0.89;100.00
70027;BME280;57506;50.092;15.804;2023-02-15T05:14:08;100694.44;;;0.99;100.00
70027;BME280;57506;50.092;15.804;2023-02-15T05:16:33;100695.38;;;0.98;100.00
70027;BME280;57506;50.092;15.804;2023-02-15T05:18:59;100709.50;;;0.98;100.00
70027;BME280;57506;50.092;15.804;2023-02-15T05:21:25;100694.19;;;0.89;100.00
70027;BME280;57506;50.092;15.804;2023-02-15T05:23:50;100695.97;;;0.89;100.00
70027;BME280;57506;50.092;15.804;2023-02-15T05:26:18;100672.78;;;0.78;100.00
70027;BME280;57506;50.092;15.804;2023-02-15T05:29:04;100702.13;;;0.89;100.00
70027;BME280;57506;50.092;15.804;2023-02-15T05:31:31;100707.06;;;0.95;100.00
70027;BME280;57506;50.092;15.804;2023-02-15T05:33:56;100710.69;;;0.94;100.00
70027;BME280;57506;50.092;15.804;2023-02-15T05:36:22;100698.53;;;0.90;100.00
70027;BME280;57506;50.092;15.804;2023-02-15T05:38:47;100702.22;;;0.88;100.00
70027;BME280;57506;50.092;15.804;2023-02-15T05:41:13;100702.91;;;0.91;100.00
70027;BME280;57506;50.092;15.804;2023-02-15T05:43:39;100708.31;;;0.90;100.00
70027;BME280;57506;50.092;15.804;2023-02-15T05:46:05;100692.47;;;0.74;100.00
70027;BME280;57506;50.092;15.804;2023-02-15T05:48:31;100711.63;;;0.79;100.00
70027;BME280;57506;50.092;15.804;2023-02-15T05:53:31;100706.09;;;0.82;100.00
70027;BME280;57506;50.092;15.804;2023-02-15T05:55:57;100683.00;;;0.70;100.00
70027;BME280;57506;50.092;15.804;2023-02-15T05:58:27;100698.47;;;0.78;100.00
70027;BME280;57506;50.092;15.804;2023-02-15T06:00:53;100692.84;;;0.82;100.00
70027;BME280;57506;50.092;15.804;2023-02-15T06:03:19;100705.75;;;0.88;100.00
70027;BME280;57506;50.092;15.804;2023-02-15T06:05:44;100712.94;;;0.86;100.00
70027;BME280;57506;50.092;15.804;2023-02-15T06:08:10;100704.44;;;0.81;100.00
70027;BME280;57506;50.092;15.804;2023-02-15T06:10:35;100711.22;;;0.85;100.00
70027;BME280;57506;50.092;15.804;2023-02-15T06:13:01;100714.66;;;0.87;100.00
70027;BME280;57506;50.092;15.804;2023-02-15T06:15:26;100703.66;;;0.79;100.00
70027;BME280;57506;50.092;15.804;2023-02-15T06:17:52;100701.19;;;0.90;100.00
70027;BME280;57506;50.092;15.804;2023-02-15T06:20:17;100721.66;;;0.88;100.00
70027;BME280;57506;50.092;15.804;2023-02-15T06:22:43;100688.47;;;0.67;100.00
70027;BME280;57506;50.092;15.804;2023-02-15T06:25:08;100702.41;;;0.70;100.00
70027;BME280;57506;50.092;15.804;2023-02-15T06:27:36;100724.81;;;0.81;100.00
70027;BME280;57506;50.092;15.804;2023-02-15T06:30:03;100721.19;;;0.82;100.00
70027;BME280;57506;50.092;15.804;2023-02-15T06:32:29;100713.03;;;0.70;100.00
70027;BME280;57506;50.092;15.804;2023-02-15T06:34:54;100729.25;;;0.80;100.00
70027;BME280;57506;50.092;15.804;2023-02-15T06:37:20;100729.44;;;0.77;100.00
70027;BME280;57506;50.092;15.804;2023-02-15T06:39:45;100703.84;;;0.76;100.00
70027;BME280;57506;50.092;15.804;2023-02-15T06:42:11;100727.81;;;0.89;100.00
70027;BME280;57506;50.092;15.804;2023-02-15T06:44:39;100719.28;;;0.84;100.00
70027;BME280;57506;50.092;15.804;2023-02-15T06:47:07;100721.66;;;0.88;100.00
70027;BME280;57506;50.092;15.804;2023-02-15T06:49:33;100709.84;;;0.80;100.00
70027;BME280;57506;50.092;15.804;2023-02-15T06:51:59;100712.94;;;0.86;100.00
70027;BME280;57506;50.092;15.804;2023-02-15T06:54:24;100732.56;;;0.98;100.00
70027;BME280;57506;50.092;15.804;2023-02-15T06:56:50;100712.28;;;0.83;100.00
70027;BME280;57506;50.092;15.804;2023-02-15T06:59:15;100704.22;;;0.84;100.00
70027;BME280;57506;50.092;15.804;2023-02-15T07:01:41;100712.94;;;0.86;100.00
70027;BME280;57506;50.092;15.804;2023-02-15T07:04:06;100716.44;;;0.87;100.00
70027;BME280;57506;50.092;15.804;2023-02-15T07:06:33;100700.94;;;0.81;100.00
70027;BME280;57506;50.092;15.804;2023-02-15T07:08:59;100709.63;;;0.83;100.00
70027;BME280;57506;50.092;15.804;2023-02-15T07:11:24;100743.66;;;1.04;100.00
70027;BME280;57506;50.092;15.804;2023-02-15T07:14:09;100739.97;;;1.07;100.00
70027;BME280;57506;50.092;15.804;2023-02-15T07:16:34;100735.50;;;0.93;100.00
70027;BME280;57506;50.092;15.804;2023-02-15T07:19:00;100722.44;;;0.90;100.00
70027;BME280;57506;50.092;15.804;2023-02-15T07:21:25;100726.09;;;1.02;100.00
70027;BME280;57506;50.092;15.804;2023-02-15T07:23:51;100743.19;;;1.12;100.00
70027;BME280;57506;50.092;15.804;2023-02-15T07:26:17;100731.81;;;1.10;100.00
70027;BME280;57506;50.092;15.804;2023-02-15T07:28:42;100718.97;;;1.17;100.00
70027;BME280;57506;50.092;15.804;2023-02-15T07:31:08;100731.88;;;1.23;100.00
70027;BME280;57506;50.092;15.804;2023-02-15T07:33:34;100739.59;;;1.13;100.00
70027;BME280;57506;50.092;15.804;2023-02-15T07:36:02;100744.13;;;1.11;100.00
70027;BME280;57506;50.092;15.804;2023-02-15T07:38:33;100738.41;;;1.17;100.00
70027;BME280;57506;50.092;15.804;2023-02-15T07:41:04;100719.19;;;1.14;100.00
70027;BME280;57506;50.092;15.804;2023-02-15T07:43:33;100712.81;;;1.16;100.00
70027;BME280;57506;50.092;15.804;2023-02-15T07:46:00;100723.91;;;1.23;100.00
70027;BME280;57506;50.092;15.804;2023-02-15T07:48:26;100735.97;;;1.28;100.00
70027;BME280;57506;50.092;15.804;2023-02-15T07:50:52;100733.22;;;1.30;100.00
70027;BME280;57506;50.092;15.804;2023-02-15T07:53:17;100715.34;;;1.32;100.00
70027;BME280;57506;50.092;15.804;2023-02-15T07:55:43;100735.00;;;1.29;100.00
70027;BME280;57506;50.092;15.804;2023-02-15T07:58:08;100732.72;;;1.37;100.00
70027;BME280;57506;50.092;15.804;2023-02-15T08:00:34;100718.47;;;1.38;100.00
70027;BME280;57506;50.092;15.804;2023-02-15T08:03:22;100710.91;;;1.32;100.00
70027;BME280;57506;50.092;15.804;2023-02-15T08:05:48;100739.44;;;1.43;100.00
70027;BME280;57506;50.092;15.804;2023-02-15T08:08:14;100708.03;;;1.35;100.00
70027;BME280;57506;50.092;15.804;2023-02-15T08:11:24;100720.75;;;1.45;100.00
70027;BME280;57506;50.092;15.804;2023-02-15T08:13:57;100723.66;;;1.54;100.00
70027;BME280;57506;50.092;15.804;2023-02-15T08:16:46;100721.06;;;1.67;100.00
70027;BME280;57506;50.092;15.804;2023-02-15T08:19:24;100705.97;;;1.67;100.00
70027;BME280;57506;50.092;15.804;2023-02-15T08:21:52;100700.06;;;1.77;100.00
70027;BME280;57506;50.092;15.804;2023-02-15T08:24:21;100705.59;;;1.86;100.00
70027;BME280;57506;50.092;15.804;2023-02-15T08:26:48;100695.28;;;1.82;100.00
70027;BME280;57506;50.092;15.804;2023-02-15T08:29:14;100691.84;;;1.80;100.00
70027;BME280;57506;50.092;15.804;2023-02-15T08:31:41;100692.97;;;1.90;100.00
70027;BME280;57506;50.092;15.804;2023-02-15T08:34:08;100691.47;;;1.86;100.00
70027;BME280;57506;50.092;15.804;2023-02-15T08:36:34;100680.75;;;2.00;100.00
70027;BME280;57506;50.092;15.804;2023-02-15T08:39:01;100690.69;;;2.10;100.00
70027;BME280;57506;50.092;15.804;2023-02-15T08:41:32;100689.59;;;2.13;100.00
70027;BME280;57506;50.092;15.804;2023-02-15T08:44:02;100679.16;;;1.97;100.00
70027;BME280;57506;50.092;15.804;2023-02-15T08:46:30;100689.59;;;2.00;100.00
70027;BME280;57506;50.092;15.804;2023-02-15T08:48:56;100681.38;;;1.91;100.00
70027;BME280;57506;50.092;15.804;2023-02-15T08:51:24;100693.28;;;1.98;100.00
70027;BME280;57506;50.092;15.804;2023-02-15T08:53:52;100700.00;;;1.91;100.00
70027;BME280;57506;50.092;15.804;2023-02-15T08:56:21;100697.25;;;2.05;100.00
70027;BME280;57506;50.092;15.804;2023-02-15T08:58:47;100686.50;;;1.94;100.00
70027;BME280;57506;50.092;15.804;2023-02-15T09:01:18;100681.19;;;1.94;100.00
70027;BME280;57506;50.092;15.804;2023-02-15T09:03:47;100693.41;;;1.96;100.00
70027;BME280;57506;50.092;15.804;2023-02-15T09:06:16;100695.66;;;2.02;100.00
70027;BME280;57506;50.092;15.804;2023-02-15T09:08:42;100697.72;;;1.85;100.00
70027;BME280;57506;50.092;15.804;2023-02-15T09:11:17;100695.00;;;1.99;100.00
70027;BME280;57506;50.092;15.804;2023-02-15T09:13:48;100696.09;;;2.09;100.00
70027;BME280;57506;50.092;15.804;2023-02-15T09:16:14;100698.47;;;2.26;100.00
70027;BME280;57506;50.092;15.804;2023-02-15T09:18:42;100676.97;;;2.17;100.00
70027;BME280;57506;50.092;15.804;2023-02-15T09:21:11;100684.09;;;2.29;100.00
70027;BME280;57506;50.092;15.804;2023-02-15T09:23:39;100688.91;;;2.36;100.00
70027;BME280;57506;50.092;15.804;2023-02-15T09:26:10;100691.69;;;2.47;100.00
70027;BME280;57506;50.092;15.804;2023-02-15T09:28:37;100687.66;;;2.42;100.00
70027;BME280;57506;50.092;15.804;2023-02-15T09:33:33;100697.28;;;2.30;100.00
70027;BME280;57506;50.092;15.804;2023-02-15T09:36:00;100689.31;;;2.18;100.00
70027;BME280;57506;50.092;15.804;2023-02-15T09:38:25;100680.38;;;2.19;100.00
70027;BME280;57506;50.092;15.804;2023-02-15T09:48:51;100678.81;;;2.41;100.00
70027;BME280;57506;50.092;15.804;2023-02-15T09:57:10;100670.59;;;2.70;100.00
70027;BME280;57506;50.092;15.804;2023-02-15T10:08:07;100684.44;;;2.24;100.00
70027;BME280;57506;50.092;15.804;2023-02-15T10:17:06;100658.59;;;2.26;100.00
70027;BME280;57506;50.092;15.804;2023-02-15T10:28:06;100641.00;;;2.49;100.00
70027;BME280;57506;50.092;15.804;2023-02-15T10:44:22;100651.66;;;2.62;100.00
70027;BME280;57506;50.092;15.804;2023-02-15T10:58:21;100644.81;;;2.83;100.00
70027;BME280;57506;50.092;15.804;2023-02-15T11:06:37;100635.13;;;2.82;100.00
70027;BME280;57506;50.092;15.804;2023-02-15T11:09:10;100621.19;;;2.66;100.00
70027;BME280;57506;50.092;15.804;2023-02-15T11:11:39;100624.13;;;2.99;100.00
70027;BME280;57506;50.092;15.804;2023-02-15T11:17:02;100623.84;;;3.15;100.00
70027;BME280;57506;50.092;15.804;2023-02-15T11:19:35;100614.94;;;3.03;100.00
70027;BME280;57506;50.092;15.804;2023-02-15T11:22:05;100613.63;;;2.85;100.00
70027;BME280;57506;50.092;15.804;2023-02-15T11:24:36;100607.34;;;2.86;100.00
70027;BME280;57506;50.092;15.804;2023-02-15T11:30:01;100604.94;;;2.58;100.00
70027;BME280;57506;50.092;15.804;2023-02-15T11:32:46;100620.78;;;2.72;100.00
70027;BME280;57506;50.092;15.804;2023-02-15T11:37:51;100602.78;;;3.12;100.00
70027;BME280;57506;50.092;15.804;2023-02-15T11:40:39;100595.13;;;3.07;100.00
70027;BME280;57506;50.092;15.804;2023-02-15T11:43:18;100570.59;;;2.78;100.00
70027;BME280;57506;50.092;15.804;2023-02-15T11:45:46;100571.97;;;2.84;100.00
70027;BME280;57506;50.092;15.804;2023-02-15T11:48:13;100588.09;;;3.06;100.00
70027;BME280;57506;50.092;15.804;2023-02-15T11:50:41;100585.53;;;3.29;100.00
70027;BME280;57506;50.092;15.804;2023-02-15T11:53:13;100588.41;;;3.38;100.00
70027;BME280;57506;50.092;15.804;2023-02-15T11:55:43;100590.22;;;3.38;100.00
70027;BME280;57506;50.092;15.804;2023-02-15T11:58:37;100592.34;;;3.33;99.24
70027;BME280;57506;50.092;15.804;2023-02-15T12:03:47;100573.25;;;3.39;99.95
70027;BME280;57506;50.092;15.804;2023-02-15T12:06:37;100585.47;;;3.65;97.25
70027;BME280;57506;50.092;15.804;2023-02-15T12:09:20;100592.84;;;3.62;98.67
70027;BME280;57506;50.092;15.804;2023-02-15T12:11:49;100577.69;;;3.97;98.97
70027;BME280;57506;50.092;15.804;2023-02-15T12:14:15;100571.09;;;3.79;98.34
70027;BME280;57506;50.092;15.804;2023-02-15T12:16:49;100593.91;;;3.83;99.26
70027;BME280;57506;50.092;15.804;2023-02-15T12:19:37;100576.41;;;3.44;97.40
70027;BME280;57506;50.092;15.804;2023-02-15T12:22:06;100586.69;;;3.37;97.49
70027;BME280;57506;50.092;15.804;2023-02-15T12:24:47;100576.97;;;3.12;99.36
70027;BME280;57506;50.092;15.804;2023-02-15T12:27:33;100580.13;;;2.94;100.00
70027;BME280;57506;50.092;15.804;2023-02-15T12:30:07;100583.31;;;2.75;100.00
70027;BME280;57506;50.092;15.804;2023-02-15T12:33:05;100580.28;;;2.92;99.60
70027;BME280;57506;50.092;15.804;2023-02-15T12:35:39;100565.09;;;3.05;100.00
70027;BME280;57506;50.092;15.804;2023-02-15T12:40:37;100552.13;;;3.01;100.00
70027;BME280;57506;50.092;15.804;2023-02-15T12:43:03;100559.75;;;3.29;100.00
70027;BME280;57506;50.092;15.804;2023-02-15T12:45:37;100561.75;;;3.14;100.00
70027;BME280;57506;50.092;15.804;2023-02-15T12:48:12;100564.50;;;2.89;100.00
70027;BME280;57506;50.092;15.804;2023-02-15T12:50:43;100570.28;;;2.83;100.00
70027;BME280;57506;50.092;15.804;2023-02-15T12:58:28;100553.09;;;3.24;100.00
70027;BME280;57506;50.092;15.804;2023-02-15T13:03:38;100534.38;;;3.12;99.58
70027;BME280;57506;50.092;15.804;2023-02-15T13:06:05;100543.13;;;3.49;99.04
70027;BME280;57506;50.092;15.804;2023-02-15T13:08:39;100537.19;;;3.46;100.00
70027;BME280;57506;50.092;15.804;2023-02-15T13:11:11;100533.22;;;3.63;98.30
70027;BME280;57506;50.092;15.804;2023-02-15T13:14:19;100532.72;;;2.99;99.72
70027;BME280;57506;50.092;15.804;2023-02-15T13:16:50;100525.19;;;3.16;100.00
70027;BME280;57506;50.092;15.804;2023-02-15T13:21:46;100526.78;;;2.95;100.00
70027;BME280;57506;50.092;15.804;2023-02-15T13:24:25;100522.41;;;3.18;100.00
70027;BME280;57506;50.092;15.804;2023-02-15T13:26:54;100518.31;;;3.25;99.76
70027;BME280;57506;50.092;15.804;2023-02-15T13:29:34;100511.56;;;3.32;100.00
70027;BME280;57506;50.092;15.804;2023-02-15T13:35:00;100515.50;;;3.39;99.18
70027;BME280;57506;50.092;15.804;2023-02-15T13:40:25;100510.31;;;2.90;100.00
70027;BME280;57506;50.092;15.804;2023-02-15T13:43:37;100512.28;;;2.99;100.00
70027;BME280;57506;50.092;15.804;2023-02-15T13:51:53;100504.56;;;2.84;100.00
70027;BME280;57506;50.092;15.804;2023-02-15T13:54:56;100506.91;;;2.88;100.00
70027;BME280;57506;50.092;15.804;2023-02-15T14:00:22;100498.28;;;2.85;100.00
70027;BME280;57506;50.092;15.804;2023-02-15T14:08:04;100486.16;;;2.80;100.00
70027;BME280;57506;50.092;15.804;2023-02-15T14:10:57;100500.63;;;2.89;100.00
70027;BME280;57506;50.092;15.804;2023-02-15T14:16:20;100491.19;;;2.96;100.00
70027;BME280;57506;50.092;15.804;2023-02-15T14:22:02;100494.16;;;3.04;100.00
70027;BME280;57506;50.092;15.804;2023-02-15T14:29:47;100487.06;;;3.16;100.00
70027;BME280;57506;50.092;15.804;2023-02-15T14:32:46;100476.69;;;3.00;100.00
70027;BME280;57506;50.092;15.804;2023-02-15T14:35:18;100476.75;;;2.88;100.00
70027;BME280;57506;50.092;15.804;2023-02-15T14:46:30;100469.28;;;2.69;100.00
70027;BME280;57506;50.092;15.804;2023-02-15T14:49:13;100460.34;;;2.70;100.00
70027;BME280;57506;50.092;15.804;2023-02-15T14:59:55;100445.28;;;2.58;100.00
70027;BME280;57506;50.092;15.804;2023-02-15T15:07:46;100437.28;;;2.58;100.00
70027;BME280;57506;50.092;15.804;2023-02-15T15:12:43;100436.34;;;2.46;100.00
70027;BME280;57506;50.092;15.804;2023-02-15T15:15:33;100420.97;;;2.38;100.00
70027;BME280;57506;50.092;15.804;2023-02-15T15:18:08;100435.75;;;2.42;100.00
70027;BME280;57506;50.092;15.804;2023-02-15T15:20:45;100427.13;;;2.39;100.00
70027;BME280;57506;50.092;15.804;2023-02-15T15:25:56;100423.31;;;2.30;100.00
70027;BME280;57506;50.092;15.804;2023-02-15T15:28:52;100422.19;;;2.22;100.00
70027;BME280;57506;50.092;15.804;2023-02-15T15:31:19;100426.44;;;2.11;100.00
70027;BME280;57506;50.092;15.804;2023-02-15T15:34:03;100409.78;;;1.97;100.00
70027;BME280;57506;50.092;15.804;2023-02-15T15:41:56;100421.97;;;1.75;100.00
70027;BME280;57506;50.092;15.804;2023-02-15T15:50:25;100392.22;;;1.45;100.00
70027;BME280;57506;50.092;15.804;2023-02-15T15:52:57;100406.03;;;1.50;100.00
70027;BME280;57506;50.092;15.804;2023-02-15T15:55:29;100410.94;;;1.44;100.00
70027;BME280;57506;50.092;15.804;2023-02-15T15:58:04;100429.69;;;1.15;100.00
70027;BME280;57506;50.092;15.804;2023-02-15T16:03:24;100407.38;;;0.39;100.00
70027;BME280;57506;50.092;15.804;2023-02-15T16:05:50;100410.34;;;0.34;100.00
70027;BME280;57506;50.092;15.804;2023-02-15T16:10:57;100405.72;;;-0.18;100.00
70027;BME280;57506;50.092;15.804;2023-02-15T16:13:23;100388.34;;;-0.50;100.00
70027;BME280;57506;50.092;15.804;2023-02-15T16:15:53;100411.50;;;-0.68;100.00
70027;BME280;57506;50.092;15.804;2023-02-15T16:18:22;100407.31;;;-0.86;100.00
70027;BME280;57506;50.092;15.804;2023-02-15T16:20:51;100387.78;;;-1.14;100.00
70027;BME280;57506;50.092;15.804;2023-02-15T16:28:21;100369.09;;;-1.41;100.00
70027;BME280;57506;50.092;15.804;2023-02-15T16:33:36;100356.13;;;-1.45;100.00